Saraland, AL (36571)

6:57 AM CDT on August 27, 2014 (GMT -0500)
The Legends At Magnolia Grove | Change Station
CLOSE
Current Station
Personal Weather Station
Location: Mobile, AL
Elevation: 171 ft
Nearby Weather Stations

Elev 171 ft 30.74 °N, 88.20 °W | Updated 5 seconds ago

Clear
Clear
72.3 °F
Feels Like 72.3 °F
N
0.0
Wind Variable Wind from NNE
Gusts 0.0 mph

Today
High -- | Low -- °F
--% Chance of Precip.
Yesterday
High -- | Low -- °F
Precip. -- in
6:25 AM 7:21 PM
Waxing Crescent, 3% visible
Pressure 30.00 in
Visibility 7.0 miles
Clouds Few 25000 ft
Dew Point 69 °F
Humidity 89%
Rainfall 0.00 in
Snow Depth Not available.
UV 0 out of 12
Pollen 8.60 out of 12
Ozone Good
Flu Activity Not available.
METAR KMOB 271056Z 00000KT 7SM FEW250 23/21 A3000 RMK AO2 SLP157 T02280206

More Conditions Fewer Conditions

Pressure 30.00 in
Visibility 7.0 miles
Clouds Few 25000 ft
Dew Point 69 °F
Humidity 89%
Rainfall 0.00 in
Snow Depth Not available.
UV 0 out of 12
Pollen 8.60 out of 12
Ozone Good
Flu Activity Not available.
METAR KMOB 271056Z 00000KT 7SM FEW250 23/21 A3000 RMK AO2 SLP157 T02280206

More Conditions Fewer Conditions

10-Day Weather Forecast

Almanac

Astronomy

Aug. 27, 2014 Rise Set
Actual Time 6:25 AM CDT 7:21 PM CDT
Civil Twilight 6:01 AM CDT 7:46 PM CDT
Nautical Twilight 5:31 AM CDT 8:15 PM CDT
Astronomical Twilight 5:01 AM CDT 8:45 PM CDT
Moon 8:10 AM CDT 8:25 PM CDT
Length of Visible Light 13h 45m
Length of Day
12h 55m
Tomorrow will be 1m 45s shorter.
Waxing Crescent, 3% of the Moon is Illuminated
Today
Waxing Crescent
Sep 2
First Quarter
Sep 8
Full
Sep 15
Last Quarter
Sep 24
New

Today's Extremes

State Highs State Lows

Community

WunderPhotos

Upload Photos

1,747,670 photos uploaded!

Nearby

Air Quality

  Air Quality AQ Index Pollutant
Yesterday Good
OZONE
Current Good
OZONE
Wednesday Good
OZONE

Snow Depth

Station Depth Elevation
No new snow has been reported.

Earthquake Activity

City Distance Mag. Time & Date
No recent earthquake activity has been reported nearby.
Minimum magnitude displayed is 2.5.

Coastal Water Temperatures

Place Temperature
Mobile State Docks, AL 84.9 °F
Coast Guard Sector Mobile, AL 84.9 °F

Nearby Weather Stations